sensor_id;sensor_type;location;lat;lon;timestamp;pressure;altitude;pressure_sealevel;temperature;humidity
9893;BME280;4985;49.092;8.542;2023-09-08T00:01:56;99517.91;;;24.98;52.38
9893;BME280;4985;49.092;8.542;2023-09-08T00:04:23;99510.09;;;24.97;52.38
9893;BME280;4985;49.092;8.542;2023-09-08T00:06:50;99512.53;;;24.98;52.37
9893;BME280;4985;49.092;8.542;2023-09-08T00:09:16;99510.91;;;24.97;52.35
9893;BME280;4985;49.092;8.542;2023-09-08T00:11:43;99503.66;;;24.98;52.36
9893;BME280;4985;49.092;8.542;2023-09-08T00:14:11;99503.66;;;24.98;52.37
9893;BME280;4985;49.092;8.542;2023-09-08T00:16:37;99510.09;;;24.97;52.37
9893;BME280;4985;49.092;8.542;2023-09-08T00:19:07;99508.22;;;24.97;52.36
9893;BME280;4985;49.092;8.542;2023-09-08T00:21:35;99503.66;;;24.98;52.35
9893;BME280;4985;49.092;8.542;2023-09-08T00:24:02;99499.34;;;24.97;52.36
9893;BME280;4985;49.092;8.542;2023-09-08T00:26:29;99503.09;;;24.96;52.36
9893;BME280;4985;49.092;8.542;2023-09-08T00:28:56;99496.88;;;24.95;52.38
9893;BME280;4985;49.092;8.542;2023-09-08T00:31:23;99495.25;;;24.94;52.38
9893;BME280;4985;49.092;8.542;2023-09-08T00:33:50;99501.47;;;24.95;52.39
9893;BME280;4985;49.092;8.542;2023-09-08T00:36:17;99494.47;;;24.94;52.39
9893;BME280;4985;49.092;8.542;2023-09-08T00:38:44;99496.34;;;24.93;52.39
9893;BME280;4985;49.092;8.542;2023-09-08T00:41:10;99497.16;;;24.94;52.39
9893;BME280;4985;49.092;8.542;2023-09-08T00:43:37;99496.34;;;24.93;52.40
9893;BME280;4985;49.092;8.542;2023-09-08T00:46:04;99498.22;;;24.93;52.40
9893;BME280;4985;49.092;8.542;2023-09-08T00:48:33;99491.22;;;24.92;52.41
9893;BME280;4985;49.092;8.542;2023-09-08T00:51:00;99496.59;;;24.92;52.40
9893;BME280;4985;49.092;8.542;2023-09-08T00:53:27;99490.37;;;24.91;52.41
9893;BME280;4985;49.092;8.542;2023-09-08T00:55:54;99483.34;;;24.90;52.40
9893;BME280;4985;49.092;8.542;2023-09-08T00:58:22;99484.97;;;24.91;52.42
9893;BME280;4985;49.092;8.542;2023-09-08T01:00:49;99477.97;;;24.90;52.41
9893;BME280;4985;49.092;8.542;2023-09-08T01:03:15;99481.72;;;24.89;52.39
9893;BME280;4985;49.092;8.542;2023-09-08T01:05:43;99485.22;;;24.90;52.40
9893;BME280;4985;49.092;8.542;2023-09-08T01:08:12;99479.28;;;24.88;52.40
9893;BME280;4985;49.092;8.542;2023-09-08T01:10:40;99482.53;;;24.90;52.39
9893;BME280;4985;49.092;8.542;2023-09-08T01:13:07;99490.87;;;24.88;52.39
9893;BME280;4985;49.092;8.542;2023-09-08T01:15:34;99479.84;;;24.90;52.40
9893;BME280;4985;49.092;8.542;2023-09-08T01:18:00;99485.50;;;24.88;52.39
9893;BME280;4985;49.092;8.542;2023-09-08T01:20:30;99484.69;;;24.88;52.39
9893;BME280;4985;49.092;8.542;2023-09-08T01:23:13;99478.47;;;24.87;52.40
9893;BME280;4985;49.092;8.542;2023-09-08T01:25:46;99479.28;;;24.88;52.40
9893;BME280;4985;49.092;8.542;2023-09-08T01:28:15;99478.47;;;24.87;52.38
9893;BME280;4985;49.092;8.542;2023-09-08T01:30:42;99480.09;;;24.88;52.37
9893;BME280;4985;49.092;8.542;2023-09-08T01:33:09;99488.19;;;24.88;52.37
9893;BME280;4985;49.092;8.542;2023-09-08T01:35:36;99478.47;;;24.87;52.37
9893;BME280;4985;49.092;8.542;2023-09-08T01:38:03;99487.38;;;24.88;52.37
9893;BME280;4985;49.092;8.542;2023-09-08T01:40:29;99476.84;;;24.86;52.39
9893;BME280;4985;49.092;8.542;2023-09-08T01:42:57;99485.75;;;24.87;52.38
9893;BME280;4985;49.092;8.542;2023-09-08T01:45:24;99484.13;;;24.86;52.39
9893;BME280;4985;49.092;8.542;2023-09-08T01:47:50;99487.06;;;24.84;52.41
9893;BME280;4985;49.092;8.542;2023-09-08T01:50:17;99482.50;;;24.85;52.40
9893;BME280;4985;49.092;8.542;2023-09-08T01:52:49;99478.72;;;24.86;52.39
9893;BME280;4985;49.092;8.542;2023-09-08T01:55:16;99485.19;;;24.85;52.40
9893;BME280;4985;49.092;8.542;2023-09-08T01:57:42;99482.50;;;24.85;52.41
9893;BME280;4985;49.092;8.542;2023-09-08T02:00:11;99479.00;;;24.84;52.41
9893;BME280;4985;49.092;8.542;2023-09-08T02:02:38;99477.38;;;24.83;52.41
9893;BME280;4985;49.092;8.542;2023-09-08T02:05:06;99474.69;;;24.83;52.40
9893;BME280;4985;49.092;8.542;2023-09-08T02:07:33;99477.38;;;24.83;52.40
9893;BME280;4985;49.092;8.542;2023-09-08T02:09:59;99471.97;;;24.83;52.40
9893;BME280;4985;49.092;8.542;2023-09-08T02:12:26;99474.69;;;24.83;52.40
9893;BME280;4985;49.092;8.542;2023-09-08T02:14:53;99474.94;;;24.82;52.39
9893;BME280;4985;49.092;8.542;2023-09-08T02:17:21;99481.94;;;24.83;52.41
9893;BME280;4985;49.092;8.542;2023-09-08T02:19:47;99470.34;;;24.82;52.39
9893;BME280;4985;49.092;8.542;2023-09-08T02:22:14;99473.06;;;24.82;52.39
9893;BME280;4985;49.092;8.542;2023-09-08T02:24:40;99469.53;;;24.82;52.38
9893;BME280;4985;49.092;8.542;2023-09-08T02:27:07;99467.91;;;24.81;52.38
9893;BME280;4985;49.092;8.542;2023-09-08T02:29:33;99473.31;;;24.81;52.38
9893;BME280;4985;49.092;8.542;2023-09-08T02:32:00;99468.72;;;24.81;52.38
9893;BME280;4985;49.092;8.542;2023-09-08T02:34:28;99467.91;;;24.81;52.38
9893;BME280;4985;49.092;8.542;2023-09-08T02:36:55;99468.97;;;24.80;52.38
9893;BME280;4985;49.092;8.542;2023-09-08T02:39:21;99466.25;;;24.80;52.39
9893;BME280;4985;49.092;8.542;2023-09-08T02:41:48;99472.47;;;24.80;52.39
9893;BME280;4985;49.092;8.542;2023-09-08T02:44:15;99464.62;;;24.79;52.39
9893;BME280;4985;49.092;8.542;2023-09-08T02:46:41;99466.53;;;24.78;52.38
9893;BME280;4985;49.092;8.542;2023-09-08T02:49:08;99464.62;;;24.79;52.39
9893;BME280;4985;49.092;8.542;2023-09-08T02:51:36;99464.91;;;24.77;52.39
9893;BME280;4985;49.092;8.542;2023-09-08T02:54:03;99464.91;;;24.77;52.39
9893;BME280;4985;49.092;8.542;2023-09-08T02:56:29;99463.00;;;24.78;52.39
9893;BME280;4985;49.092;8.542;2023-09-08T02:58:56;99465.97;;;24.76;52.39
9893;BME280;4985;49.092;8.542;2023-09-08T03:01:22;99467.03;;;24.75;52.40
9893;BME280;4985;49.092;8.542;2023-09-08T03:03:49;99465.16;;;24.76;52.39
9893;BME280;4985;49.092;8.542;2023-09-08T03:06:19;99461.38;;;24.77;52.39
9893;BME280;4985;49.092;8.542;2023-09-08T03:08:48;99461.66;;;24.75;52.39
9893;BME280;4985;49.092;8.542;2023-09-08T03:11:14;99461.66;;;24.75;52.38
9893;BME280;4985;49.092;8.542;2023-09-08T03:13:41;99456.25;;;24.75;52.37
9893;BME280;4985;49.092;8.542;2023-09-08T03:16:08;99454.34;;;24.71;52.36
9893;BME280;4985;49.092;8.542;2023-09-08T03:18:36;99451.94;;;24.74;52.36
9893;BME280;4985;49.092;8.542;2023-09-08T03:21:03;99461.66;;;24.75;52.35
9893;BME280;4985;49.092;8.542;2023-09-08T03:23:34;99457.59;;;24.73;52.35
9893;BME280;4985;49.092;8.542;2023-09-08T03:26:02;99457.34;;;24.74;52.36
9893;BME280;4985;49.092;8.542;2023-09-08T03:28:29;99457.34;;;24.74;52.34
9893;BME280;4985;49.092;8.542;2023-09-08T03:30:55;99455.16;;;24.71;52.34
9893;BME280;4985;49.092;8.542;2023-09-08T03:33:22;99462.97;;;24.73;52.34
9893;BME280;4985;49.092;8.542;2023-09-08T03:35:49;99465.66;;;24.73;52.34
9893;BME280;4985;49.092;8.542;2023-09-08T03:38:15;99470.22;;;24.72;52.35
9893;BME280;4985;49.092;8.542;2023-09-08T03:40:42;99464.84;;;24.72;52.35
9893;BME280;4985;49.092;8.542;2023-09-08T03:43:10;99465.91;;;24.71;52.35
9893;BME280;4985;49.092;8.542;2023-09-08T03:45:36;99461.59;;;24.70;52.36
9893;BME280;4985;49.092;8.542;2023-09-08T03:48:03;99471.31;;;24.71;52.35
9893;BME280;4985;49.092;8.542;2023-09-08T03:50:30;99460.78;;;24.70;52.36
9893;BME280;4985;49.092;8.542;2023-09-08T03:52:57;99461.59;;;24.70;52.35
9893;BME280;4985;49.092;8.542;2023-09-08T03:55:23;99466.97;;;24.70;52.36
9893;BME280;4985;49.092;8.542;2023-09-08T03:57:50;99462.66;;;24.69;52.35
9893;BME280;4985;49.092;8.542;2023-09-08T04:00:19;99457.28;;;24.69;52.34
9893;BME280;4985;49.092;8.542;2023-09-08T04:02:47;99474.25;;;24.70;52.36
9893;BME280;4985;49.092;8.542;2023-09-08T04:05:14;99472.59;;;24.68;52.34
9893;BME280;4985;49.092;8.542;2023-09-08T04:07:40;99478.81;;;24.69;52.35
9893;BME280;4985;49.092;8.542;2023-09-08T04:10:08;99479.84;;;24.68;52.35
9893;BME280;4985;49.092;8.542;2023-09-08T04:12:35;99473.66;;;24.67;52.35
9893;BME280;4985;49.092;8.542;2023-09-08T04:15:01;99479.03;;;24.67;52.33
9893;BME280;4985;49.092;8.542;2023-09-08T04:17:29;99482.00;;;24.66;52.33
9893;BME280;4985;49.092;8.542;2023-09-08T04:19:56;99483.63;;;24.67;52.33
9893;BME280;4985;49.092;8.542;2023-09-08T04:22:22;99492.75;;;24.66;52.33
9893;BME280;4985;49.092;8.542;2023-09-08T04:24:49;99483.63;;;24.67;52.33
9893;BME280;4985;49.092;8.542;2023-09-08T04:27:16;99483.88;;;24.65;52.32
9893;BME280;4985;49.092;8.542;2023-09-08T04:29:42;99480.38;;;24.65;52.32
9893;BME280;4985;49.092;8.542;2023-09-08T04:32:09;99485.50;;;24.66;52.30
9893;BME280;4985;49.092;8.542;2023-09-08T04:34:39;99491.94;;;24.65;52.29
9893;BME280;4985;49.092;8.542;2023-09-08T04:37:06;99482.00;;;24.66;52.27
9893;BME280;4985;49.092;8.542;2023-09-08T04:39:33;99487.38;;;24.66;52.28
9893;BME280;4985;49.092;8.542;2023-09-08T04:42:00;99491.94;;;24.65;52.26
9893;BME280;4985;49.092;8.542;2023-09-08T04:44:26;99492.75;;;24.66;52.25
9893;BME280;4985;49.092;8.542;2023-09-08T04:46:54;99487.38;;;24.66;52.24
9893;BME280;4985;49.092;8.542;2023-09-08T04:49:20;99500.03;;;24.65;52.24
9893;BME280;4985;49.092;8.542;2023-09-08T04:51:48;99495.97;;;24.63;52.22
9893;BME280;4985;49.092;8.542;2023-09-08T04:54:15;99496.50;;;24.65;52.24
9893;BME280;4985;49.092;8.542;2023-09-08T04:56:42;99497.59;;;24.64;52.21
9893;BME280;4985;49.092;8.542;2023-09-08T04:59:08;99501.09;;;24.64;52.21
9893;BME280;4985;49.092;8.542;2023-09-08T05:01:35;99503.78;;;24.64;52.19
9893;BME280;4985;49.092;8.542;2023-09-08T05:04:03;99496.50;;;24.65;52.18
9893;BME280;4985;49.092;8.542;2023-09-08T05:06:29;99501.91;;;24.65;52.16
9893;BME280;4985;49.092;8.542;2023-09-08T05:08:57;99506.22;;;24.66;52.13
9893;BME280;4985;49.092;8.542;2023-09-08T05:11:24;99502.72;;;24.65;52.13
9893;BME280;4985;49.092;8.542;2023-09-08T05:13:51;99503.53;;;24.66;52.10
9893;BME280;4985;49.092;8.542;2023-09-08T05:16:17;99509.97;;;24.65;52.10
9893;BME280;4985;49.092;8.542;2023-09-08T05:18:50;99511.84;;;24.64;52.10
9893;BME280;4985;49.092;8.542;2023-09-08T05:21:17;99509.41;;;24.63;52.11
9893;BME280;4985;49.092;8.542;2023-09-08T05:23:44;99513.97;;;24.62;52.11
9893;BME280;4985;49.092;8.542;2023-09-08T05:26:11;99521.25;;;24.62;52.13
9893;BME280;4985;49.092;8.542;2023-09-08T05:28:38;99516.94;;;24.61;52.12
9893;BME280;4985;49.092;8.542;2023-09-08T05:31:05;99522.31;;;24.61;52.14
9893;BME280;4985;49.092;8.542;2023-09-08T05:33:31;99518.56;;;24.62;52.11
9893;BME280;4985;49.092;8.542;2023-09-08T05:35:58;99525.00;;;24.61;52.12
9893;BME280;4985;49.092;8.542;2023-09-08T05:38:24;99525.00;;;24.61;52.12
9893;BME280;4985;49.092;8.542;2023-09-08T05:40:53;99520.69;;;24.60;52.12
9893;BME280;4985;49.092;8.542;2023-09-08T05:43:21;99519.06;;;24.59;52.13
9893;BME280;4985;49.092;8.542;2023-09-08T05:45:47;99530.63;;;24.59;52.11
9893;BME280;4985;49.092;8.542;2023-09-08T05:48:14;99522.56;;;24.59;52.09
9893;BME280;4985;49.092;8.542;2023-09-08T05:50:40;99528.75;;;24.60;52.09
9893;BME280;4985;49.092;8.542;2023-09-08T05:53:07;99525.50;;;24.58;52.10
9893;BME280;4985;49.092;8.542;2023-09-08T05:55:34;99530.91;;;24.58;52.11
9893;BME280;4985;49.092;8.542;2023-09-08T05:58:00;99528.19;;;24.58;52.11
9893;BME280;4985;49.092;8.542;2023-09-08T06:00:29;99530.31;;;24.56;52.10
9893;BME280;4985;49.092;8.542;2023-09-08T06:02:55;99536.50;;;24.56;52.10
9893;BME280;4985;49.092;8.542;2023-09-08T06:05:22;99534.63;;;24.57;52.08
9893;BME280;4985;49.092;8.542;2023-09-08T06:07:49;99530.31;;;24.56;52.07
9893;BME280;4985;49.092;8.542;2023-09-08T06:10:16;99536.75;;;24.55;52.07
9893;BME280;4985;49.092;8.542;2023-09-08T06:12:42;99524.34;;;24.54;52.08
9893;BME280;4985;49.092;8.542;2023-09-08T06:15:09;99533.25;;;24.54;52.08
9893;BME280;4985;49.092;8.542;2023-09-08T06:17:37;99532.44;;;24.54;52.09
9893;BME280;4985;49.092;8.542;2023-09-08T06:20:04;99528.13;;;24.53;52.11
9893;BME280;4985;49.092;8.542;2023-09-08T06:22:31;99532.44;;;24.54;52.08
9893;BME280;4985;49.092;8.542;2023-09-08T06:24:58;99532.69;;;24.52;52.09
9893;BME280;4985;49.092;8.542;2023-09-08T06:27:24;99527.31;;;24.52;52.08
9893;BME280;4985;49.092;8.542;2023-09-08T06:29:51;99533.50;;;24.53;52.08
9893;BME280;4985;49.092;8.542;2023-09-08T06:32:18;99529.19;;;24.52;52.09
9893;BME280;4985;49.092;8.542;2023-09-08T06:34:46;99531.06;;;24.51;52.08
9893;BME280;4985;49.092;8.542;2023-09-08T06:37:12;99530.81;;;24.53;52.05
9893;BME280;4985;49.092;8.542;2023-09-08T06:39:39;99536.19;;;24.53;52.03
9893;BME280;4985;49.092;8.542;2023-09-08T06:42:05;99540.75;;;24.52;52.04
9893;BME280;4985;49.092;8.542;2023-09-08T06:44:32;99538.31;;;24.51;52.03
9893;BME280;4985;49.092;8.542;2023-09-08T06:46:59;99538.31;;;24.51;52.04
9893;BME280;4985;49.092;8.542;2023-09-08T06:49:25;99542.88;;;24.50;52.04
9893;BME280;4985;49.092;8.542;2023-09-08T06:51:53;99542.06;;;24.50;52.03
9893;BME280;4985;49.092;8.542;2023-09-08T06:54:20;99544.75;;;24.50;52.03
9893;BME280;4985;49.092;8.542;2023-09-08T06:56:46;99541.25;;;24.49;52.02
9893;BME280;4985;49.092;8.542;2023-09-08T06:59:13;99535.06;;;24.49;52.03
9893;BME280;4985;49.092;8.542;2023-09-08T07:01:39;99540.44;;;24.49;52.04
9893;BME280;4985;49.092;8.542;2023-09-08T07:04:06;99538.81;;;24.48;52.03
9893;BME280;4985;49.092;8.542;2023-09-08T07:06:32;99533.44;;;24.48;52.04
9893;BME280;4985;49.092;8.542;2023-09-08T07:09:01;99538.81;;;24.48;52.04
9893;BME280;4985;49.092;8.542;2023-09-08T07:11:28;99541.72;;;24.46;52.04
9893;BME280;4985;49.092;8.542;2023-09-08T07:13:55;99547.97;;;24.47;52.02
9893;BME280;4985;49.092;8.542;2023-09-08T07:16:22;99540.91;;;24.46;52.03
9893;BME280;4985;49.092;8.542;2023-09-08T07:18:49;99546.31;;;24.46;52.02
9893;BME280;4985;49.092;8.542;2023-09-08T07:21:16;99538.47;;;24.44;52.03
9893;BME280;4985;49.092;8.542;2023-09-08T07:23:43;99550.06;;;24.45;52.03
9893;BME280;4985;49.092;8.542;2023-09-08T07:26:11;99547.38;;;24.45;52.03
9893;BME280;4985;49.092;8.542;2023-09-08T07:28:37;99546.56;;;24.44;52.02
9893;BME280;4985;49.092;8.542;2023-09-08T07:31:05;99542.25;;;24.43;52.02
9893;BME280;4985;49.092;8.542;2023-09-08T07:33:34;99545.75;;;24.44;52.02
9893;BME280;4985;49.092;8.542;2023-09-08T07:36:04;99541.41;;;24.43;52.02
9893;BME280;4985;49.092;8.542;2023-09-08T07:38:31;99540.34;;;24.44;52.00
9893;BME280;4985;49.092;8.542;2023-09-08T07:40:57;99538.72;;;24.43;52.01
9893;BME280;4985;49.092;8.542;2023-09-08T07:43:26;99545.19;;;24.42;52.01
9893;BME280;4985;49.092;8.542;2023-09-08T07:45:53;99539.78;;;24.42;52.01
9893;BME280;4985;49.092;8.542;2023-09-08T07:48:20;99545.19;;;24.42;52.02
9893;BME280;4985;49.092;8.542;2023-09-08T07:50:46;99538.97;;;24.41;52.01
9893;BME280;4985;49.092;8.542;2023-09-08T07:53:13;99543.56;;;24.41;52.03
9893;BME280;4985;49.092;8.542;2023-09-08T07:55:39;99539.22;;;24.39;52.03
9893;BME280;4985;49.092;8.542;2023-09-08T07:58:07;99546.50;;;24.39;52.04
9893;BME280;4985;49.092;8.542;2023-09-08T08:00:36;99550.81;;;24.40;52.06
9893;BME280;4985;49.092;8.542;2023-09-08T08:03:03;99550.81;;;24.40;52.05
9893;BME280;4985;49.092;8.542;2023-09-08T08:05:31;99544.63;;;24.39;52.04
9893;BME280;4985;49.092;8.542;2023-09-08T08:07:58;99543.81;;;24.39;52.04
9893;BME280;4985;49.092;8.542;2023-09-08T08:10:24;99551.06;;;24.38;52.04
9893;BME280;4985;49.092;8.542;2023-09-08T08:12:51;99541.13;;;24.39;52.04
9893;BME280;4985;49.092;8.542;2023-09-08T08:15:18;99550.81;;;24.40;52.04
9893;BME280;4985;49.092;8.542;2023-09-08T08:17:47;99545.69;;;24.38;52.04
9893;BME280;4985;49.092;8.542;2023-09-08T08:20:14;99537.59;;;24.38;52.04
9893;BME280;4985;49.092;8.542;2023-09-08T08:22:43;99541.38;;;24.37;52.04
9893;BME280;4985;49.092;8.542;2023-09-08T08:25:11;99543.25;;;24.37;52.04
9893;BME280;4985;49.092;8.542;2023-09-08T08:27:39;99541.63;;;24.36;52.04
9893;BME280;4985;49.092;8.542;2023-09-08T08:30:07;99537.84;;;24.37;52.05
9893;BME280;4985;49.092;8.542;2023-09-08T08:32:34;99540.81;;;24.35;52.05
9893;BME280;4985;49.092;8.542;2023-09-08T08:35:02;99536.22;;;24.36;52.06
9893;BME280;4985;49.092;8.542;2023-09-08T08:37:29;99540.81;;;24.35;52.07
9893;BME280;4985;49.092;8.542;2023-09-08T08:39:56;99542.44;;;24.36;52.06
9893;BME280;4985;49.092;8.542;2023-09-08T08:42:22;99535.16;;;24.37;52.06
9893;BME280;4985;49.092;8.542;2023-09-08T08:44:49;99538.91;;;24.36;52.05
9893;BME280;4985;49.092;8.542;2023-09-08T08:47:17;99535.41;;;24.35;52.04
9893;BME280;4985;49.092;8.542;2023-09-08T08:49:46;99535.41;;;24.35;52.07
9893;BME280;4985;49.092;8.542;2023-09-08T08:52:15;99538.13;;;24.35;52.08
9893;BME280;4985;49.092;8.542;2023-09-08T08:54:43;99540.81;;;24.35;52.08
9893;BME280;4985;49.092;8.542;2023-09-08T08:57:11;99539.97;;;24.35;52.09
9893;BME280;4985;49.092;8.542;2023-09-08T08:59:38;99545.34;;;24.35;52.09
9893;BME280;4985;49.092;8.542;2023-09-08T09:02:07;99534.56;;;24.35;52.08
9893;BME280;4985;49.092;8.542;2023-09-08T09:04:36;99536.13;;;24.31;52.11
9893;BME280;4985;49.092;8.542;2023-09-08T09:07:04;99540.22;;;24.33;52.12
9893;BME280;4985;49.092;8.542;2023-09-08T09:09:33;99539.16;;;24.34;52.13
9893;BME280;4985;49.092;8.542;2023-09-08T09:12:00;99535.63;;;24.34;52.15
9893;BME280;4985;49.092;8.542;2023-09-08T09:14:28;99546.41;;;24.34;52.15
9893;BME280;4985;49.092;8.542;2023-09-08T09:16:56;99541.28;;;24.32;52.17
9893;BME280;4985;49.092;8.542;2023-09-08T09:19:23;99542.91;;;24.33;52.18
9893;BME280;4985;49.092;8.542;2023-09-08T09:21:53;99543.97;;;24.32;52.18
9893;BME280;4985;49.092;8.542;2023-09-08T09:24:29;99542.09;;;24.33;52.19
9893;BME280;4985;49.092;8.542;2023-09-08T09:26:57;99538.59;;;24.32;52.21
9893;BME280;4985;49.092;8.542;2023-09-08T09:29:24;99539.66;;;24.31;52.22
9893;BME280;4985;49.092;8.542;2023-09-08T09:31:51;99538.59;;;24.32;52.21
9893;BME280;4985;49.092;8.542;2023-09-08T09:34:20;99534.25;;;24.31;52.23
9893;BME280;4985;49.092;8.542;2023-09-08T09:36:47;99534.25;;;24.31;52.24
9893;BME280;4985;49.092;8.542;2023-09-08T09:39:17;99535.06;;;24.32;52.24
9893;BME280;4985;49.092;8.542;2023-09-08T09:41:44;99535.87;;;24.32;52.23
9893;BME280;4985;49.092;8.542;2023-09-08T09:44:12;99529.44;;;24.33;52.23
9893;BME280;4985;49.092;8.542;2023-09-08T09:46:43;99524.78;;;24.29;52.23
9893;BME280;4985;49.092;8.542;2023-09-08T09:49:10;99527.81;;;24.32;52.25
9893;BME280;4985;49.092;8.542;2023-09-08T09:51:40;99526.19;;;24.31;52.26
9893;BME280;4985;49.092;8.542;2023-09-08T09:54:07;99526.19;;;24.31;52.27
9893;BME280;4985;49.092;8.542;2023-09-08T09:56:34;99525.38;;;24.31;52.26
9893;BME280;4985;49.092;8.542;2023-09-08T09:59:03;99526.19;;;24.31;52.28
9893;BME280;4985;49.092;8.542;2023-09-08T10:01:32;99525.59;;;24.29;52.28
9893;BME280;4985;49.092;8.542;2023-09-08T10:03:59;99528.06;;;24.31;52.29
9893;BME280;4985;49.092;8.542;2023-09-08T10:06:27;99524.56;;;24.30;52.29
9893;BME280;4985;49.092;8.542;2023-09-08T10:08:54;99525.12;;;24.32;52.30
9893;BME280;4985;49.092;8.542;2023-09-08T10:11:21;99525.12;;;24.32;52.29
9893;BME280;4985;49.092;8.542;2023-09-08T10:13:51;99518.13;;;24.31;52.29
9893;BME280;4985;49.092;8.542;2023-09-08T10:16:20;99519.75;;;24.32;52.29
9893;BME280;4985;49.092;8.542;2023-09-08T10:18:50;99518.94;;;24.32;52.30
9893;BME280;4985;49.092;8.542;2023-09-08T10:21:19;99518.13;;;24.31;52.31
9893;BME280;4985;49.092;8.542;2023-09-08T10:23:51;99520.56;;;24.33;52.30
9893;BME280;4985;49.092;8.542;2023-09-08T10:26:22;99523.50;;;24.31;52.31
9893;BME280;4985;49.092;8.542;2023-09-08T10:28:51;99516.50;;;24.30;52.33
9893;BME280;4985;49.092;8.542;2023-09-08T10:31:21;99518.13;;;24.31;52.33
9893;BME280;4985;49.092;8.542;2023-09-08T10:33:50;99513.81;;;24.30;52.33
9893;BME280;4985;49.092;8.542;2023-09-08T10:36:16;99520.81;;;24.31;52.35
9893;BME280;4985;49.092;8.542;2023-09-08T10:38:44;99512.75;;;24.31;52.35
9893;BME280;4985;49.092;8.542;2023-09-08T10:41:28;99511.94;;;24.31;52.35
9893;BME280;4985;49.092;8.542;2023-09-08T10:44:02;99500.34;;;24.30;52.38
9893;BME280;4985;49.092;8.542;2023-09-08T10:46:31;99505.75;;;24.30;52.38
9893;BME280;4985;49.092;8.542;2023-09-08T10:49:04;99506.56;;;24.31;52.38
9893;BME280;4985;49.092;8.542;2023-09-08T10:51:32;99506.56;;;24.31;52.40
9893;BME280;4985;49.092;8.542;2023-09-08T10:54:00;99509.00;;;24.32;52.41
9893;BME280;4985;49.092;8.542;2023-09-08T10:56:27;99511.94;;;24.31;52.41
9893;BME280;4985;49.092;8.542;2023-09-08T10:58:55;99499.28;;;24.31;52.43
9893;BME280;4985;49.092;8.542;2023-09-08T11:01:22;99504.66;;;24.31;52.43
9893;BME280;4985;49.092;8.542;2023-09-08T11:03:52;99507.34;;;24.31;52.43
9893;BME280;4985;49.092;8.542;2023-09-08T11:06:22;99501.97;;;24.31;52.42
9893;BME280;4985;49.092;8.542;2023-09-08T11:08:49;99501.16;;;24.31;52.42
9893;BME280;4985;49.092;8.542;2023-09-08T11:11:18;99502.78;;;24.32;52.43
9893;BME280;4985;49.092;8.542;2023-09-08T11:13:45;99508.19;;;24.32;52.44
9893;BME280;4985;49.092;8.542;2023-09-08T11:16:13;99500.09;;;24.32;52.46
9893;BME280;4985;49.092;8.542;2023-09-08T11:18:40;99497.41;;;24.32;52.46
9893;BME280;4985;49.092;8.542;2023-09-08T11:21:08;99495.53;;;24.32;52.44
9893;BME280;4985;49.092;8.542;2023-09-08T11:23:36;99487.47;;;24.32;52.45
9893;BME280;4985;49.092;8.542;2023-09-08T11:26:03;99489.09;;;24.33;52.44
9893;BME280;4985;49.092;8.542;2023-09-08T11:28:30;99494.47;;;24.33;52.43
9893;BME280;4985;49.092;8.542;2023-09-08T11:30:57;99489.91;;;24.34;52.44
9893;BME280;4985;49.092;8.542;2023-09-08T11:33:24;99489.09;;;24.33;52.44
9893;BME280;4985;49.092;8.542;2023-09-08T11:35:51;99492.59;;;24.34;52.45
9893;BME280;4985;49.092;8.542;2023-09-08T11:38:19;99489.09;;;24.33;52.47
9893;BME280;4985;49.092;8.542;2023-09-08T11:40:47;99485.34;;;24.34;52.47
9893;BME280;4985;49.092;8.542;2023-09-08T11:43:13;99479.12;;;24.34;52.48
9893;BME280;4985;49.092;8.542;2023-09-08T11:45:42;99484.53;;;24.34;52.48
9893;BME280;4985;49.092;8.542;2023-09-08T11:48:09;99483.72;;;24.33;52.50
9893;BME280;4985;49.092;8.542;2023-09-08T11:50:36;99479.12;;;24.34;52.50
9893;BME280;4985;49.092;8.542;2023-09-08T11:53:03;99471.88;;;24.34;52.51
9893;BME280;4985;49.092;8.542;2023-09-08T11:55:31;99470.84;;;24.35;52.51
9893;BME280;4985;49.092;8.542;2023-09-08T11:57:59;99480.78;;;24.35;52.51
9893;BME280;4985;49.092;8.542;2023-09-08T12:00:27;99470.84;;;24.35;52.53
9893;BME280;4985;49.092;8.542;2023-09-08T12:02:54;99479.72;;;24.36;52.53
9893;BME280;4985;49.092;8.542;2023-09-08T12:05:21;99471.66;;;24.36;52.55
9893;BME280;4985;49.092;8.542;2023-09-08T12:07:49;99472.47;;;24.36;52.56
9893;BME280;4985;49.092;8.542;2023-09-08T12:10:16;99472.47;;;24.36;52.59
9893;BME280;4985;49.092;8.542;2023-09-08T12:12:44;99474.09;;;24.37;52.60
9893;BME280;4985;49.092;8.542;2023-09-08T12:15:29;99479.47;;;24.37;52.61
9893;BME280;4985;49.092;8.542;2023-09-08T12:17:57;99468.72;;;24.37;52.62
9893;BME280;4985;49.092;8.542;2023-09-08T12:20:23;99469.28;;;24.39;52.62
9893;BME280;4985;49.092;8.542;2023-09-08T12:22:50;99476.53;;;24.39;52.62
9893;BME280;4985;49.092;8.542;2023-09-08T12:25:17;99466.59;;;24.39;52.64
9893;BME280;4985;49.092;8.542;2023-09-08T12:27:45;99462.03;;;24.40;52.63
9893;BME280;4985;49.092;8.542;2023-09-08T12:30:18;99460.13;;;24.41;52.66
9893;BME280;4985;49.092;8.542;2023-09-08T12:32:46;99463.66;;;24.41;52.67
9893;BME280;4985;49.092;8.542;2023-09-08T12:35:19;99460.13;;;24.41;52.67
9893;BME280;4985;49.092;8.542;2023-09-08T12:37:47;99461.75;;;24.42;52.70
9893;BME280;4985;49.092;8.542;2023-09-08T12:40:14;99454.50;;;24.42;52.72
9893;BME280;4985;49.092;8.542;2023-09-08T12:42:41;99453.69;;;24.42;52.73
9893;BME280;4985;49.092;8.542;2023-09-08T12:45:08;99454.50;;;24.42;52.75
9893;BME280;4985;49.092;8.542;2023-09-08T12:47:36;99447.25;;;24.43;52.76
9893;BME280;4985;49.092;8.542;2023-09-08T12:50:03;99445.37;;;24.43;52.77
9893;BME280;4985;49.092;8.542;2023-09-08T12:52:30;99442.69;;;24.43;52.79
9893;BME280;4985;49.092;8.542;2023-09-08T12:54:57;99441.62;;;24.44;52.81
9893;BME280;4985;49.092;8.542;2023-09-08T12:57:23;99438.66;;;24.46;52.83
9893;BME280;4985;49.092;8.542;2023-09-08T12:59:50;99436.22;;;24.44;52.85
9893;BME280;4985;49.092;8.542;2023-09-08T13:02:17;99441.34;;;24.46;52.87
9893;BME280;4985;49.092;8.542;2023-09-08T13:04:45;99428.72;;;24.46;52.90
9893;BME280;4985;49.092;8.542;2023-09-08T13:07:13;99438.44;;;24.47;52.91
9893;BME280;4985;49.092;8.542;2023-09-08T13:09:40;99433.06;;;24.47;52.93
9893;BME280;4985;49.092;8.542;2023-09-08T13:12:07;99430.37;;;24.47;52.97
9893;BME280;4985;49.092;8.542;2023-09-08T13:14:34;99432.81;;;24.49;52.98
9893;BME280;4985;49.092;8.542;2023-09-08T13:17:01;99432.81;;;24.49;53.00
9893;BME280;4985;49.092;8.542;2023-09-08T13:19:27;99429.31;;;24.48;53.01
9893;BME280;4985;49.092;8.542;2023-09-08T13:21:55;99423.66;;;24.50;53.03
9893;BME280;4985;49.092;8.542;2023-09-08T13:24:21;99425.28;;;24.51;53.04